sensor_id;sensor_type;location;lat;lon;timestamp;P1;durP1;ratioP1;P2;durP2;ratioP2
52730;SDS011;38624;53.242;6.974;2023-06-22T00:02:13;31.75;;;24.83;;
52730;SDS011;38624;53.242;6.974;2023-06-22T00:04:39;32.90;;;24.63;;
52730;SDS011;38624;53.242;6.974;2023-06-22T00:07:05;31.48;;;24.77;;
52730;SDS011;38624;53.242;6.974;2023-06-22T00:09:31;35.03;;;25.00;;
52730;SDS011;38624;53.242;6.974;2023-06-22T00:11:57;35.63;;;28.33;;
52730;SDS011;38624;53.242;6.974;2023-06-22T00:14:23;39.73;;;29.37;;
52730;SDS011;38624;53.242;6.974;2023-06-22T00:16:49;33.57;;;26.67;;
52730;SDS011;38624;53.242;6.974;2023-06-22T00:19:18;32.05;;;26.70;;
52730;SDS011;38624;53.242;6.974;2023-06-22T00:21:44;29.30;;;25.27;;
52730;SDS011;38624;53.242;6.974;2023-06-22T00:24:12;34.63;;;26.02;;
52730;SDS011;38624;53.242;6.974;2023-06-22T00:26:38;32.55;;;26.02;;
52730;SDS011;38624;53.242;6.974;2023-06-22T00:29:04;34.13;;;27.87;;
52730;SDS011;38624;53.242;6.974;2023-06-22T00:31:29;37.17;;;28.63;;
52730;SDS011;38624;53.242;6.974;2023-06-22T00:33:55;34.20;;;27.40;;
52730;SDS011;38624;53.242;6.974;2023-06-22T00:36:21;33.73;;;26.57;;
52730;SDS011;38624;53.242;6.974;2023-06-22T00:38:47;36.13;;;26.15;;
52730;SDS011;38624;53.242;6.974;2023-06-22T00:41:15;34.60;;;28.00;;
52730;SDS011;38624;53.242;6.974;2023-06-22T00:43:41;36.25;;;27.75;;
52730;SDS011;38624;53.242;6.974;2023-06-22T00:46:07;32.20;;;26.47;;
52730;SDS011;38624;53.242;6.974;2023-06-22T00:48:33;32.58;;;26.23;;
52730;SDS011;38624;53.242;6.974;2023-06-22T00:51:01;34.38;;;27.05;;
52730;SDS011;38624;53.242;6.974;2023-06-22T00:53:27;35.20;;;27.13;;
52730;SDS011;38624;53.242;6.974;2023-06-22T00:55:53;33.80;;;26.90;;
52730;SDS011;38624;53.242;6.974;2023-06-22T00:58:19;31.73;;;26.88;;
52730;SDS011;38624;53.242;6.974;2023-06-22T01:00:47;33.63;;;27.85;;
52730;SDS011;38624;53.242;6.974;2023-06-22T01:03:13;37.53;;;29.02;;
52730;SDS011;38624;53.242;6.974;2023-06-22T01:05:39;37.23;;;30.80;;
52730;SDS011;38624;53.242;6.974;2023-06-22T01:10:57;39.05;;;29.73;;
52730;SDS011;38624;53.242;6.974;2023-06-22T01:13:57;38.20;;;28.50;;
52730;SDS011;38624;53.242;6.974;2023-06-22T01:16:31;37.67;;;29.73;;
52730;SDS011;38624;53.242;6.974;2023-06-22T01:21:43;36.75;;;29.42;;
52730;SDS011;38624;53.242;6.974;2023-06-22T01:24:27;38.70;;;30.42;;
52730;SDS011;38624;53.242;6.974;2023-06-22T01:29:48;40.78;;;31.10;;
52730;SDS011;38624;53.242;6.974;2023-06-22T01:32:27;36.90;;;29.02;;
52730;SDS011;38624;53.242;6.974;2023-06-22T01:34:58;41.15;;;32.75;;
52730;SDS011;38624;53.242;6.974;2023-06-22T01:37:27;40.05;;;32.40;;
52730;SDS011;38624;53.242;6.974;2023-06-22T01:39:53;46.42;;;33.80;;
52730;SDS011;38624;53.242;6.974;2023-06-22T01:42:21;40.20;;;31.50;;
52730;SDS011;38624;53.242;6.974;2023-06-22T01:44:49;38.88;;;32.72;;
52730;SDS011;38624;53.242;6.974;2023-06-22T01:47:15;43.28;;;33.25;;
52730;SDS011;38624;53.242;6.974;2023-06-22T01:49:41;41.08;;;32.30;;
52730;SDS011;38624;53.242;6.974;2023-06-22T01:52:08;40.85;;;32.60;;
52730;SDS011;38624;53.242;6.974;2023-06-22T01:54:33;41.63;;;31.83;;
52730;SDS011;38624;53.242;6.974;2023-06-22T01:56:59;43.33;;;33.63;;
52730;SDS011;38624;53.242;6.974;2023-06-22T01:59:27;39.83;;;31.10;;
52730;SDS011;38624;53.242;6.974;2023-06-22T02:01:59;39.65;;;31.70;;
52730;SDS011;38624;53.242;6.974;2023-06-22T02:04:51;36.50;;;29.30;;
52730;SDS011;38624;53.242;6.974;2023-06-22T02:07:28;33.30;;;26.92;;
52730;SDS011;38624;53.242;6.974;2023-06-22T02:09:57;36.03;;;29.70;;
52730;SDS011;38624;53.242;6.974;2023-06-22T02:12:25;38.90;;;31.08;;
52730;SDS011;38624;53.242;6.974;2023-06-22T02:14:52;36.85;;;30.90;;
52730;SDS011;38624;53.242;6.974;2023-06-22T02:17:19;43.08;;;36.20;;
52730;SDS011;38624;53.242;6.974;2023-06-22T02:19:45;46.25;;;36.65;;
52730;SDS011;38624;53.242;6.974;2023-06-22T02:22:11;48.40;;;37.03;;
52730;SDS011;38624;53.242;6.974;2023-06-22T02:24:38;47.75;;;36.80;;
52730;SDS011;38624;53.242;6.974;2023-06-22T02:27:04;45.47;;;36.87;;
52730;SDS011;38624;53.242;6.974;2023-06-22T02:29:32;46.72;;;37.17;;
52730;SDS011;38624;53.242;6.974;2023-06-22T02:31:58;51.33;;;37.70;;
52730;SDS011;38624;53.242;6.974;2023-06-22T02:34:23;50.53;;;36.87;;
52730;SDS011;38624;53.242;6.974;2023-06-22T02:36:50;51.17;;;37.85;;
52730;SDS011;38624;53.242;6.974;2023-06-22T02:39:23;50.28;;;37.10;;
52730;SDS011;38624;53.242;6.974;2023-06-22T02:41:49;47.55;;;34.58;;
52730;SDS011;38624;53.242;6.974;2023-06-22T02:44:16;54.05;;;39.60;;
52730;SDS011;38624;53.242;6.974;2023-06-22T02:46:42;55.95;;;41.20;;
52730;SDS011;38624;53.242;6.974;2023-06-22T02:49:07;62.23;;;42.37;;
52730;SDS011;38624;53.242;6.974;2023-06-22T02:51:34;53.17;;;40.63;;
52730;SDS011;38624;53.242;6.974;2023-06-22T02:54:00;63.57;;;42.47;;
52730;SDS011;38624;53.242;6.974;2023-06-22T02:56:25;51.22;;;39.78;;
52730;SDS011;38624;53.242;6.974;2023-06-22T02:58:52;60.38;;;39.95;;
52730;SDS011;38624;53.242;6.974;2023-06-22T03:01:18;57.47;;;40.37;;
52730;SDS011;38624;53.242;6.974;2023-06-22T03:03:49;59.05;;;42.15;;
52730;SDS011;38624;53.242;6.974;2023-06-22T03:06:15;63.33;;;42.60;;
52730;SDS011;38624;53.242;6.974;2023-06-22T03:08:40;63.57;;;42.20;;
52730;SDS011;38624;53.242;6.974;2023-06-22T03:11:09;63.67;;;41.72;;
52730;SDS011;38624;53.242;6.974;2023-06-22T03:13:34;55.13;;;39.77;;
52730;SDS011;38624;53.242;6.974;2023-06-22T03:16:00;54.20;;;40.33;;
52730;SDS011;38624;53.242;6.974;2023-06-22T03:18:26;61.07;;;43.63;;
52730;SDS011;38624;53.242;6.974;2023-06-22T03:20:52;55.42;;;39.67;;
52730;SDS011;38624;53.242;6.974;2023-06-22T03:23:17;54.37;;;39.97;;
52730;SDS011;38624;53.242;6.974;2023-06-22T03:25:43;52.60;;;40.10;;
52730;SDS011;38624;53.242;6.974;2023-06-22T03:28:11;58.65;;;41.88;;
52730;SDS011;38624;53.242;6.974;2023-06-22T03:30:37;61.57;;;43.00;;
52730;SDS011;38624;53.242;6.974;2023-06-22T03:33:03;58.17;;;41.90;;
52730;SDS011;38624;53.242;6.974;2023-06-22T03:35:28;58.17;;;41.20;;
52730;SDS011;38624;53.242;6.974;2023-06-22T03:37:54;56.47;;;40.13;;
52730;SDS011;38624;53.242;6.974;2023-06-22T03:40:20;58.03;;;41.37;;
52730;SDS011;38624;53.242;6.974;2023-06-22T03:42:46;68.67;;;43.67;;
52730;SDS011;38624;53.242;6.974;2023-06-22T03:45:11;61.10;;;43.30;;
52730;SDS011;38624;53.242;6.974;2023-06-22T03:47:37;59.63;;;43.40;;
52730;SDS011;38624;53.242;6.974;2023-06-22T03:50:03;65.30;;;42.77;;
52730;SDS011;38624;53.242;6.974;2023-06-22T03:52:29;61.65;;;42.13;;
52730;SDS011;38624;53.242;6.974;2023-06-22T03:54:55;60.10;;;44.03;;
52730;SDS011;38624;53.242;6.974;2023-06-22T03:57:21;61.83;;;43.70;;
52730;SDS011;38624;53.242;6.974;2023-06-22T03:59:47;58.93;;;43.50;;
52730;SDS011;38624;53.242;6.974;2023-06-22T04:02:12;62.57;;;42.73;;
52730;SDS011;38624;53.242;6.974;2023-06-22T04:04:38;51.73;;;38.27;;
52730;SDS011;38624;53.242;6.974;2023-06-22T04:07:04;52.73;;;38.37;;
52730;SDS011;38624;53.242;6.974;2023-06-22T04:09:30;49.25;;;37.10;;
52730;SDS011;38624;53.242;6.974;2023-06-22T04:11:56;54.97;;;39.83;;
52730;SDS011;38624;53.242;6.974;2023-06-22T04:14:21;48.23;;;36.43;;
52730;SDS011;38624;53.242;6.974;2023-06-22T04:16:47;48.50;;;36.50;;
52730;SDS011;38624;53.242;6.974;2023-06-22T04:19:13;44.50;;;34.13;;
52730;SDS011;38624;53.242;6.974;2023-06-22T04:21:44;39.20;;;31.10;;
52730;SDS011;38624;53.242;6.974;2023-06-22T04:24:11;40.65;;;30.05;;
52730;SDS011;38624;53.242;6.974;2023-06-22T04:26:36;36.55;;;28.60;;
52730;SDS011;38624;53.242;6.974;2023-06-22T04:29:03;36.13;;;28.80;;
52730;SDS011;38624;53.242;6.974;2023-06-22T04:31:33;35.78;;;28.63;;
52730;SDS011;38624;53.242;6.974;2023-06-22T04:34:06;36.83;;;26.77;;
52730;SDS011;38624;53.242;6.974;2023-06-22T04:36:35;32.13;;;26.90;;
52730;SDS011;38624;53.242;6.974;2023-06-22T04:39:06;34.88;;;27.45;;
52730;SDS011;38624;53.242;6.974;2023-06-22T04:41:34;34.65;;;26.80;;
52730;SDS011;38624;53.242;6.974;2023-06-22T04:44:10;33.35;;;26.23;;
52730;SDS011;38624;53.242;6.974;2023-06-22T04:46:37;30.48;;;25.52;;
52730;SDS011;38624;53.242;6.974;2023-06-22T04:49:07;28.95;;;22.65;;
52730;SDS011;38624;53.242;6.974;2023-06-22T04:51:40;24.92;;;21.92;;
52730;SDS011;38624;53.242;6.974;2023-06-22T04:54:07;26.83;;;20.42;;
52730;SDS011;38624;53.242;6.974;2023-06-22T04:58:59;24.60;;;19.30;;
52730;SDS011;38624;53.242;6.974;2023-06-22T05:01:25;22.55;;;18.63;;
52730;SDS011;38624;53.242;6.974;2023-06-22T05:03:51;25.70;;;18.70;;
52730;SDS011;38624;53.242;6.974;2023-06-22T05:06:21;23.63;;;18.05;;
52730;SDS011;38624;53.242;6.974;2023-06-22T05:08:51;19.83;;;15.43;;
52730;SDS011;38624;53.242;6.974;2023-06-22T05:11:24;19.02;;;15.85;;
52730;SDS011;38624;53.242;6.974;2023-06-22T05:13:53;22.98;;;16.23;;
52730;SDS011;38624;53.242;6.974;2023-06-22T05:16:19;23.83;;;16.60;;
52730;SDS011;38624;53.242;6.974;2023-06-22T05:18:54;22.45;;;16.80;;
52730;SDS011;38624;53.242;6.974;2023-06-22T05:21:24;22.58;;;17.02;;
52730;SDS011;38624;53.242;6.974;2023-06-22T05:23:51;23.95;;;17.35;;
52730;SDS011;38624;53.242;6.974;2023-06-22T05:26:18;21.95;;;18.23;;
52730;SDS011;38624;53.242;6.974;2023-06-22T05:28:45;25.13;;;19.15;;
52730;SDS011;38624;53.242;6.974;2023-06-22T05:31:12;23.00;;;18.70;;
52730;SDS011;38624;53.242;6.974;2023-06-22T05:33:39;23.00;;;18.92;;
52730;SDS011;38624;53.242;6.974;2023-06-22T05:36:05;20.90;;;18.30;;
52730;SDS011;38624;53.242;6.974;2023-06-22T05:38:30;21.43;;;17.33;;
52730;SDS011;38624;53.242;6.974;2023-06-22T05:40:56;22.60;;;17.47;;
52730;SDS011;38624;53.242;6.974;2023-06-22T05:43:22;24.63;;;18.27;;
52730;SDS011;38624;53.242;6.974;2023-06-22T05:45:47;28.33;;;20.77;;
52730;SDS011;38624;53.242;6.974;2023-06-22T05:48:13;23.90;;;19.87;;
52730;SDS011;38624;53.242;6.974;2023-06-22T05:50:39;24.97;;;19.83;;
52730;SDS011;38624;53.242;6.974;2023-06-22T05:53:05;28.25;;;20.83;;
52730;SDS011;38624;53.242;6.974;2023-06-22T05:55:32;24.95;;;21.17;;
52730;SDS011;38624;53.242;6.974;2023-06-22T05:57:57;26.90;;;21.23;;
52730;SDS011;38624;53.242;6.974;2023-06-22T06:00:23;24.37;;;19.97;;
52730;SDS011;38624;53.242;6.974;2023-06-22T06:02:49;27.47;;;21.60;;
52730;SDS011;38624;53.242;6.974;2023-06-22T06:05:15;24.53;;;17.47;;
52730;SDS011;38624;53.242;6.974;2023-06-22T06:07:41;23.55;;;18.95;;
52730;SDS011;38624;53.242;6.974;2023-06-22T06:10:08;21.08;;;16.40;;
52730;SDS011;38624;53.242;6.974;2023-06-22T06:12:34;18.02;;;14.65;;
52730;SDS011;38624;53.242;6.974;2023-06-22T06:15:01;17.63;;;13.77;;
52730;SDS011;38624;53.242;6.974;2023-06-22T06:17:27;20.52;;;16.25;;
52730;SDS011;38624;53.242;6.974;2023-06-22T06:19:52;19.33;;;14.30;;
52730;SDS011;38624;53.242;6.974;2023-06-22T06:22:18;21.20;;;15.83;;
52730;SDS011;38624;53.242;6.974;2023-06-22T06:24:45;18.92;;;15.85;;
52730;SDS011;38624;53.242;6.974;2023-06-22T06:29:38;20.67;;;15.48;;
52730;SDS011;38624;53.242;6.974;2023-06-22T06:32:04;19.23;;;15.40;;
52730;SDS011;38624;53.242;6.974;2023-06-22T06:34:30;18.07;;;14.10;;
52730;SDS011;38624;53.242;6.974;2023-06-22T06:36:55;21.90;;;17.07;;
52730;SDS011;38624;53.242;6.974;2023-06-22T06:39:21;17.70;;;15.23;;
52730;SDS011;38624;53.242;6.974;2023-06-22T06:41:47;17.87;;;15.20;;
52730;SDS011;38624;53.242;6.974;2023-06-22T06:44:12;17.40;;;12.73;;
52730;SDS011;38624;53.242;6.974;2023-06-22T06:46:38;19.43;;;13.83;;
52730;SDS011;38624;53.242;6.974;2023-06-22T06:49:04;18.17;;;14.90;;
52730;SDS011;38624;53.242;6.974;2023-06-22T06:51:29;18.03;;;14.03;;
52730;SDS011;38624;53.242;6.974;2023-06-22T06:53:55;15.23;;;12.13;;
52730;SDS011;38624;53.242;6.974;2023-06-22T06:56:21;14.53;;;12.20;;
52730;SDS011;38624;53.242;6.974;2023-06-22T06:58:46;15.07;;;11.67;;
52730;SDS011;38624;53.242;6.974;2023-06-22T07:01:14;13.93;;;11.27;;
52730;SDS011;38624;53.242;6.974;2023-06-22T07:03:40;15.37;;;11.30;;
52730;SDS011;38624;53.242;6.974;2023-06-22T07:06:06;12.33;;;10.07;;
52730;SDS011;38624;53.242;6.974;2023-06-22T07:08:33;14.80;;;11.20;;
52730;SDS011;38624;53.242;6.974;2023-06-22T07:11:00;17.58;;;11.50;;
52730;SDS011;38624;53.242;6.974;2023-06-22T07:13:26;11.97;;;8.47;;
52730;SDS011;38624;53.242;6.974;2023-06-22T07:15:51;12.57;;;8.93;;
52730;SDS011;38624;53.242;6.974;2023-06-22T07:18:17;14.73;;;10.67;;
52730;SDS011;38624;53.242;6.974;2023-06-22T07:20:42;14.37;;;10.40;;
52730;SDS011;38624;53.242;6.974;2023-06-22T07:23:08;10.03;;;8.93;;
52730;SDS011;38624;53.242;6.974;2023-06-22T07:25:34;11.33;;;9.10;;
52730;SDS011;38624;53.242;6.974;2023-06-22T07:28:01;18.83;;;12.30;;
52730;SDS011;38624;53.242;6.974;2023-06-22T07:30:29;15.70;;;10.25;;
52730;SDS011;38624;53.242;6.974;2023-06-22T07:32:56;17.30;;;13.23;;
52730;SDS011;38624;53.242;6.974;2023-06-22T07:37:47;17.67;;;12.65;;
52730;SDS011;38624;53.242;6.974;2023-06-22T07:40:13;17.53;;;13.70;;
52730;SDS011;38624;53.242;6.974;2023-06-22T07:42:39;18.63;;;14.53;;
52730;SDS011;38624;53.242;6.974;2023-06-22T07:45:05;18.17;;;14.50;;
52730;SDS011;38624;53.242;6.974;2023-06-22T07:47:33;15.18;;;10.45;;
52730;SDS011;38624;53.242;6.974;2023-06-22T07:50:00;12.85;;;10.55;;
52730;SDS011;38624;53.242;6.974;2023-06-22T07:52:27;11.25;;;8.45;;
52730;SDS011;38624;53.242;6.974;2023-06-22T07:54:54;13.90;;;11.13;;
52730;SDS011;38624;53.242;6.974;2023-06-22T07:57:20;12.57;;;10.53;;
52730;SDS011;38624;53.242;6.974;2023-06-22T07:59:45;13.07;;;10.07;;
52730;SDS011;38624;53.242;6.974;2023-06-22T08:02:11;12.87;;;10.97;;
52730;SDS011;38624;53.242;6.974;2023-06-22T08:04:38;10.95;;;7.40;;
52730;SDS011;38624;53.242;6.974;2023-06-22T08:07:04;11.63;;;8.88;;
52730;SDS011;38624;53.242;6.974;2023-06-22T08:09:31;11.80;;;8.45;;
52730;SDS011;38624;53.242;6.974;2023-06-22T08:11:58;9.50;;;7.22;;
52730;SDS011;38624;53.242;6.974;2023-06-22T08:14:27;8.68;;;7.28;;
52730;SDS011;38624;53.242;6.974;2023-06-22T08:16:54;10.18;;;8.40;;
52730;SDS011;38624;53.242;6.974;2023-06-22T08:19:20;14.40;;;8.60;;
52730;SDS011;38624;53.242;6.974;2023-06-22T08:21:46;13.07;;;8.57;;
52730;SDS011;38624;53.242;6.974;2023-06-22T08:24:11;13.00;;;8.20;;
52730;SDS011;38624;53.242;6.974;2023-06-22T08:26:38;11.35;;;8.10;;
52730;SDS011;38624;53.242;6.974;2023-06-22T08:29:03;10.13;;;7.40;;
52730;SDS011;38624;53.242;6.974;2023-06-22T08:31:30;12.47;;;7.53;;
52730;SDS011;38624;53.242;6.974;2023-06-22T08:33:58;8.50;;;6.57;;
52730;SDS011;38624;53.242;6.974;2023-06-22T08:36:24;10.10;;;6.40;;
52730;SDS011;38624;53.242;6.974;2023-06-22T08:38:50;9.50;;;5.60;;
52730;SDS011;38624;53.242;6.974;2023-06-22T08:41:19;8.38;;;6.07;;
52730;SDS011;38624;53.242;6.974;2023-06-22T08:43:45;7.25;;;5.45;;
52730;SDS011;38624;53.242;6.974;2023-06-22T08:46:11;7.63;;;6.03;;
52730;SDS011;38624;53.242;6.974;2023-06-22T08:51:04;7.25;;;4.95;;
52730;SDS011;38624;53.242;6.974;2023-06-22T08:53:29;5.75;;;4.65;;
52730;SDS011;38624;53.242;6.974;2023-06-22T08:55:55;6.53;;;4.87;;
52730;SDS011;38624;53.242;6.974;2023-06-22T08:58:21;7.93;;;5.30;;
52730;SDS011;38624;53.242;6.974;2023-06-22T09:00:47;7.27;;;4.80;;
52730;SDS011;38624;53.242;6.974;2023-06-22T09:03:13;6.72;;;4.45;;
52730;SDS011;38624;53.242;6.974;2023-06-22T09:05:39;8.27;;;5.57;;
52730;SDS011;38624;53.242;6.974;2023-06-22T09:08:05;8.20;;;5.07;;
52730;SDS011;38624;53.242;6.974;2023-06-22T09:10:30;6.53;;;4.87;;
52730;SDS011;38624;53.242;6.974;2023-06-22T09:12:56;5.00;;;3.93;;
52730;SDS011;38624;53.242;6.974;2023-06-22T09:15:22;7.40;;;5.55;;
52730;SDS011;38624;53.242;6.974;2023-06-22T09:17:48;9.15;;;6.32;;
52730;SDS011;38624;53.242;6.974;2023-06-22T09:20:14;9.30;;;6.23;;
52730;SDS011;38624;53.242;6.974;2023-06-22T09:22:40;9.07;;;5.70;;
52730;SDS011;38624;53.242;6.974;2023-06-22T09:25:06;7.82;;;6.03;;
52730;SDS011;38624;53.242;6.974;2023-06-22T09:27:32;7.40;;;5.68;;
52730;SDS011;38624;53.242;6.974;2023-06-22T09:29:58;7.13;;;5.10;;
52730;SDS011;38624;53.242;6.974;2023-06-22T09:32:24;10.97;;;6.27;;
52730;SDS011;38624;53.242;6.974;2023-06-22T09:34:53;8.25;;;5.63;;
52730;SDS011;38624;53.242;6.974;2023-06-22T09:37:19;8.60;;;5.10;;
52730;SDS011;38624;53.242;6.974;2023-06-22T09:39:45;8.20;;;6.20;;
52730;SDS011;38624;53.242;6.974;2023-06-22T09:42:10;8.97;;;6.13;;
52730;SDS011;38624;53.242;6.974;2023-06-22T09:44:38;10.32;;;6.00;;
52730;SDS011;38624;53.242;6.974;2023-06-22T09:47:04;11.87;;;7.63;;
52730;SDS011;38624;53.242;6.974;2023-06-22T09:49:30;10.40;;;6.70;;
52730;SDS011;38624;53.242;6.974;2023-06-22T09:51:57;11.43;;;5.55;;
52730;SDS011;38624;53.242;6.974;2023-06-22T09:54:22;7.43;;;5.30;;
52730;SDS011;38624;53.242;6.974;2023-06-22T09:56:48;9.57;;;6.20;;
52730;SDS011;38624;53.242;6.974;2023-06-22T09:59:14;7.43;;;5.03;;
52730;SDS011;38624;53.242;6.974;2023-06-22T10:01:39;9.50;;;6.37;;
52730;SDS011;38624;53.242;6.974;2023-06-22T10:04:05;7.77;;;6.10;;
52730;SDS011;38624;53.242;6.974;2023-06-22T10:06:31;11.50;;;6.37;;
52730;SDS011;38624;53.242;6.974;2023-06-22T10:08:57;10.40;;;6.87;;
52730;SDS011;38624;53.242;6.974;2023-06-22T10:11:22;9.63;;;7.60;;
52730;SDS011;38624;53.242;6.974;2023-06-22T10:13:54;9.68;;;5.97;;
52730;SDS011;38624;53.242;6.974;2023-06-22T10:16:20;6.72;;;5.20;;
52730;SDS011;38624;53.242;6.974;2023-06-22T10:18:45;8.60;;;5.30;;
52730;SDS011;38624;53.242;6.974;2023-06-22T10:21:11;10.50;;;7.70;;
52730;SDS011;38624;53.242;6.974;2023-06-22T10:23:37;7.67;;;5.40;;
52730;SDS011;38624;53.242;6.974;2023-06-22T10:26:02;9.70;;;6.90;;
52730;SDS011;38624;53.242;6.974;2023-06-22T10:28:28;10.17;;;7.10;;
52730;SDS011;38624;53.242;6.974;2023-06-22T10:30:54;9.37;;;6.90;;
52730;SDS011;38624;53.242;6.974;2023-06-22T10:33:19;10.90;;;7.23;;
52730;SDS011;38624;53.242;6.974;2023-06-22T10:35:45;12.57;;;7.55;;
52730;SDS011;38624;53.242;6.974;2023-06-22T10:38:11;8.83;;;6.83;;
52730;SDS011;38624;53.242;6.974;2023-06-22T10:40:36;8.27;;;6.07;;
52730;SDS011;38624;53.242;6.974;2023-06-22T10:43:04;9.80;;;6.28;;
52730;SDS011;38624;53.242;6.974;2023-06-22T10:45:30;9.23;;;5.20;;
52730;SDS011;38624;53.242;6.974;2023-06-22T10:47:55;7.27;;;4.90;;
52730;SDS011;38624;53.242;6.974;2023-06-22T10:50:21;10.03;;;6.63;;
52730;SDS011;38624;53.242;6.974;2023-06-22T10:52:49;8.90;;;6.10;;
52730;SDS011;38624;53.242;6.974;2023-06-22T10:55:14;8.50;;;6.03;;
52730;SDS011;38624;53.242;6.974;2023-06-22T10:57:40;9.57;;;5.87;;
52730;SDS011;38624;53.242;6.974;2023-06-22T11:00:09;6.82;;;4.43;;
52730;SDS011;38624;53.242;6.974;2023-06-22T11:02:36;8.63;;;5.93;;
52730;SDS011;38624;53.242;6.974;2023-06-22T11:05:02;10.45;;;6.63;;
52730;SDS011;38624;53.242;6.974;2023-06-22T11:07:28;7.82;;;6.18;;
52730;SDS011;38624;53.242;6.974;2023-06-22T11:09:54;6.28;;;4.90;;
52730;SDS011;38624;53.242;6.974;2023-06-22T11:12:20;7.72;;;5.97;;
52730;SDS011;38624;53.242;6.974;2023-06-22T11:14:46;9.27;;;5.67;;
52730;SDS011;38624;53.242;6.974;2023-06-22T11:17:12;10.93;;;6.57;;
52730;SDS011;38624;53.242;6.974;2023-06-22T11:19:37;9.43;;;6.53;;
52730;SDS011;38624;53.242;6.974;2023-06-22T11:22:03;8.90;;;7.20;;
52730;SDS011;38624;53.242;6.974;2023-06-22T11:24:29;8.48;;;4.88;;
52730;SDS011;38624;53.242;6.974;2023-06-22T11:26:55;8.80;;;6.57;;
52730;SDS011;38624;53.242;6.974;2023-06-22T11:29:20;8.82;;;6.60;;
52730;SDS011;38624;53.242;6.974;2023-06-22T11:31:46;7.60;;;5.60;;
52730;SDS011;38624;53.242;6.974;2023-06-22T11:34:12;8.13;;;6.53;;
52730;SDS011;38624;53.242;6.974;2023-06-22T11:36:37;10.83;;;7.23;;
52730;SDS011;38624;53.242;6.974;2023-06-22T11:39:03;9.60;;;6.33;;
52730;SDS011;38624;53.242;6.974;2023-06-22T11:41:30;8.02;;;4.60;;
52730;SDS011;38624;53.242;6.974;2023-06-22T11:43:55;7.43;;;5.77;;
52730;SDS011;38624;53.242;6.974;2023-06-22T11:46:21;7.30;;;5.33;;
52730;SDS011;38624;53.242;6.974;2023-06-22T11:48:47;8.43;;;5.67;;
52730;SDS011;38624;53.242;6.974;2023-06-22T11:51:12;10.43;;;6.63;;
52730;SDS011;38624;53.242;6.974;2023-06-22T11:53:38;8.23;;;4.82;;
52730;SDS011;38624;53.242;6.974;2023-06-22T11:56:04;9.17;;;5.50;;
52730;SDS011;38624;53.242;6.974;2023-06-22T11:58:29;7.83;;;5.73;;
52730;SDS011;38624;53.242;6.974;2023-06-22T12:00:57;8.00;;;5.78;;
52730;SDS011;38624;53.242;6.974;2023-06-22T12:03:23;6.47;;;4.72;;
52730;SDS011;38624;53.242;6.974;2023-06-22T12:05:52;6.45;;;4.05;;
52730;SDS011;38624;53.242;6.974;2023-06-22T12:08:18;6.00;;;4.03;;
52730;SDS011;38624;53.242;6.974;2023-06-22T12:10:47;7.85;;;4.45;;
52730;SDS011;38624;53.242;6.974;2023-06-22T12:13:14;7.93;;;4.20;;
52730;SDS011;38624;53.242;6.974;2023-06-22T12:15:43;6.80;;;4.07;;
52730;SDS011;38624;53.242;6.974;2023-06-22T12:18:11;6.40;;;4.53;;
52730;SDS011;38624;53.242;6.974;2023-06-22T12:20:39;5.90;;;4.20;;
52730;SDS011;38624;53.242;6.974;2023-06-22T12:23:05;5.00;;;3.72;;
52730;SDS011;38624;53.242;6.974;2023-06-22T12:25:30;8.03;;;5.03;;
52730;SDS011;38624;53.242;6.974;2023-06-22T12:27:56;8.18;;;5.20;;
52730;SDS011;38624;53.242;6.974;2023-06-22T12:30:22;9.20;;;5.63;;
52730;SDS011;38624;53.242;6.974;2023-06-22T12:32:47;5.85;;;4.20;;
52730;SDS011;38624;53.242;6.974;2023-06-22T12:35:14;7.72;;;4.72;;
52730;SDS011;38624;53.242;6.974;2023-06-22T12:37:41;7.95;;;5.22;;
52730;SDS011;38624;53.242;6.974;2023-06-22T12:40:07;6.97;;;4.55;;
52730;SDS011;38624;53.242;6.974;2023-06-22T12:42:34;8.02;;;5.57;;
52730;SDS011;38624;53.242;6.974;2023-06-22T12:45:00;11.32;;;6.20;;
52730;SDS011;38624;53.242;6.974;2023-06-22T12:47:25;7.93;;;5.28;;
52730;SDS011;38624;53.242;6.974;2023-06-22T12:49:51;6.63;;;5.28;;
52730;SDS011;38624;53.242;6.974;2023-06-22T12:52:17;8.75;;;7.18;;
52730;SDS011;38624;53.242;6.974;2023-06-22T12:54:42;7.32;;;5.20;;
52730;SDS011;38624;53.242;6.974;2023-06-22T12:57:08;9.57;;;6.68;;
52730;SDS011;38624;53.242;6.974;2023-06-22T12:59:37;7.10;;;5.60;;
52730;SDS011;38624;53.242;6.974;2023-06-22T13:02:03;8.32;;;6.57;;
52730;SDS011;38624;53.242;6.974;2023-06-22T13:04:29;10.23;;;7.25;;
52730;SDS011;38624;53.242;6.974;2023-06-22T13:06:54;9.17;;;7.23;;
52730;SDS011;38624;53.242;6.974;2023-06-22T13:09:20;11.35;;;7.32;;
52730;SDS011;38624;53.242;6.974;2023-06-22T13:11:46;10.88;;;6.90;;
52730;SDS011;38624;53.242;6.974;2023-06-22T13:14:12;11.90;;;8.15;;
52730;SDS011;38624;53.242;6.974;2023-06-22T13:16:37;8.80;;;7.10;;
52730;SDS011;38624;53.242;6.974;2023-06-22T13:19:03;13.23;;;8.45;;
52730;SDS011;38624;53.242;6.974;2023-06-22T13:21:30;10.95;;;6.82;;
52730;SDS011;38624;53.242;6.974;2023-06-22T13:23:56;11.20;;;7.10;;
52730;SDS011;38624;53.242;6.974;2023-06-22T13:26:21;11.45;;;7.15;;
52730;SDS011;38624;53.242;6.974;2023-06-22T13:28:47;10.05;;;7.40;;
52730;SDS011;38624;53.242;6.974;2023-06-22T13:31:13;8.47;;;6.90;;
52730;SDS011;38624;53.242;6.974;2023-06-22T13:33:39;10.37;;;6.50;;
52730;SDS011;38624;53.242;6.974;2023-06-22T13:36:06;8.60;;;6.43;;
52730;SDS011;38624;53.242;6.974;2023-06-22T13:38:32;9.52;;;6.20;;
52730;SDS011;38624;53.242;6.974;2023-06-22T13:40:59;8.82;;;6.40;;
52730;SDS011;38624;53.242;6.974;2023-06-22T13:43:26;9.10;;;5.93;;
52730;SDS011;38624;53.242;6.974;2023-06-22T13:45:52;7.63;;;4.95;;
52730;SDS011;38624;53.242;6.974;2023-06-22T13:48:18;9.77;;;4.57;;
52730;SDS011;38624;53.242;6.974;2023-06-22T13:50:44;7.10;;;4.70;;
52730;SDS011;38624;53.242;6.974;2023-06-22T13:53:10;6.70;;;4.57;;
52730;SDS011;38624;53.242;6.974;2023-06-22T13:55:35;7.28;;;4.38;;
52730;SDS011;38624;53.242;6.974;2023-06-22T13:58:01;6.78;;;4.20;;
52730;SDS011;38624;53.242;6.974;2023-06-22T14:00:27;5.93;;;4.13;;
52730;SDS011;38624;53.242;6.974;2023-06-22T14:02:53;5.13;;;3.85;;
52730;SDS011;38624;53.242;6.974;2023-06-22T14:07:47;7.93;;;4.20;;
52730;SDS011;38624;53.242;6.974;2023-06-22T14:10:13;6.47;;;3.95;;
52730;SDS011;38624;53.242;6.974;2023-06-22T14:12:39;5.35;;;3.80;;
52730;SDS011;38624;53.242;6.974;2023-06-22T14:15:04;8.20;;;4.05;;
52730;SDS011;38624;53.242;6.974;2023-06-22T14:17:31;7.43;;;3.90;;
52730;SDS011;38624;53.242;6.974;2023-06-22T14:19:56;5.63;;;3.50;;
52730;SDS011;38624;53.242;6.974;2023-06-22T14:22:22;7.10;;;3.88;;
52730;SDS011;38624;53.242;6.974;2023-06-22T14:24:48;6.40;;;3.40;;
52730;SDS011;38624;53.242;6.974;2023-06-22T14:27:14;5.05;;;3.22;;
52730;SDS011;38624;53.242;6.974;2023-06-22T14:29:40;5.32;;;2.85;;
52730;SDS011;38624;53.242;6.974;2023-06-22T14:32:07;6.32;;;3.40;;
52730;SDS011;38624;53.242;6.974;2023-06-22T14:34:33;4.25;;;3.03;;
52730;SDS011;38624;53.242;6.974;2023-06-22T14:37:05;5.30;;;3.25;;
52730;SDS011;38624;53.242;6.974;2023-06-22T14:39:32;6.45;;;2.92;;
52730;SDS011;38624;53.242;6.974;2023-06-22T14:41:58;4.13;;;2.60;;
52730;SDS011;38624;53.242;6.974;2023-06-22T14:44:25;4.30;;;2.60;;
52730;SDS011;38624;53.242;6.974;2023-06-22T14:46:57;5.40;;;2.40;;
52730;SDS011;38624;53.242;6.974;2023-06-22T14:49:23;3.88;;;2.47;;
52730;SDS011;38624;53.242;6.974;2023-06-22T14:51:49;9.27;;;2.30;;